sensor_id;sensor_type;location;lat;lon;timestamp;P1;durP1;ratioP1;P2;durP2;ratioP2
63320;SDS011;49449;48.800;9.534;2023-04-25T00:00:58;2.10;;;2.00;;
63320;SDS011;49449;48.800;9.534;2023-04-25T00:03:26;1.98;;;1.70;;
63320;SDS011;49449;48.800;9.534;2023-04-25T00:05:55;2.20;;;2.00;;
63320;SDS011;49449;48.800;9.534;2023-04-25T00:08:25;2.38;;;1.92;;
63320;SDS011;49449;48.800;9.534;2023-04-25T00:10:53;1.77;;;1.67;;
63320;SDS011;49449;48.800;9.534;2023-04-25T00:13:21;1.77;;;1.67;;
63320;SDS011;49449;48.800;9.534;2023-04-25T00:15:49;1.88;;;1.77;;
63320;SDS011;49449;48.800;9.534;2023-04-25T00:18:17;2.45;;;1.90;;
63320;SDS011;49449;48.800;9.534;2023-04-25T00:20:45;2.45;;;1.88;;
63320;SDS011;49449;48.800;9.534;2023-04-25T00:23:13;2.00;;;1.90;;
63320;SDS011;49449;48.800;9.534;2023-04-25T00:25:45;1.73;;;1.63;;
63320;SDS011;49449;48.800;9.534;2023-04-25T00:28:13;1.85;;;1.75;;
63320;SDS011;49449;48.800;9.534;2023-04-25T00:30:41;2.47;;;1.60;;
63320;SDS011;49449;48.800;9.534;2023-04-25T00:33:09;1.73;;;1.63;;
63320;SDS011;49449;48.800;9.534;2023-04-25T00:35:37;2.17;;;1.98;;
63320;SDS011;49449;48.800;9.534;2023-04-25T00:38:05;2.00;;;1.77;;
63320;SDS011;49449;48.800;9.534;2023-04-25T00:40:33;1.90;;;1.80;;
63320;SDS011;49449;48.800;9.534;2023-04-25T00:43:02;1.92;;;1.83;;
63320;SDS011;49449;48.800;9.534;2023-04-25T00:45:30;1.70;;;1.60;;
63320;SDS011;49449;48.800;9.534;2023-04-25T00:47:58;2.28;;;1.80;;
63320;SDS011;49449;48.800;9.534;2023-04-25T00:50:27;2.08;;;1.65;;
63320;SDS011;49449;48.800;9.534;2023-04-25T00:52:54;2.20;;;2.00;;
63320;SDS011;49449;48.800;9.534;2023-04-25T00:55:22;1.90;;;1.75;;
63320;SDS011;49449;48.800;9.534;2023-04-25T00:57:51;1.60;;;1.50;;
63320;SDS011;49449;48.800;9.534;2023-04-25T01:00:20;1.98;;;1.85;;
63320;SDS011;49449;48.800;9.534;2023-04-25T01:02:48;1.75;;;1.65;;
63320;SDS011;49449;48.800;9.534;2023-04-25T01:05:16;1.77;;;1.67;;
63320;SDS011;49449;48.800;9.534;2023-04-25T01:07:45;2.10;;;1.95;;
63320;SDS011;49449;48.800;9.534;2023-04-25T01:10:13;2.05;;;1.50;;
63320;SDS011;49449;48.800;9.534;2023-04-25T01:12:41;1.77;;;1.67;;
63320;SDS011;49449;48.800;9.534;2023-04-25T01:15:09;1.60;;;1.50;;
63320;SDS011;49449;48.800;9.534;2023-04-25T01:17:38;2.83;;;1.60;;
63320;SDS011;49449;48.800;9.534;2023-04-25T01:20:09;2.08;;;1.88;;
63320;SDS011;49449;48.800;9.534;2023-04-25T01:22:40;2.20;;;2.10;;
63320;SDS011;49449;48.800;9.534;2023-04-25T01:25:08;2.08;;;1.75;;
63320;SDS011;49449;48.800;9.534;2023-04-25T01:27:36;2.05;;;1.85;;
63320;SDS011;49449;48.800;9.534;2023-04-25T01:30:05;2.00;;;1.63;;
63320;SDS011;49449;48.800;9.534;2023-04-25T01:32:34;1.67;;;1.58;;
63320;SDS011;49449;48.800;9.534;2023-04-25T01:35:05;1.85;;;1.70;;
63320;SDS011;49449;48.800;9.534;2023-04-25T01:37:35;1.83;;;1.73;;
63320;SDS011;49449;48.800;9.534;2023-04-25T01:40:05;3.88;;;1.95;;
63320;SDS011;49449;48.800;9.534;2023-04-25T01:42:34;2.53;;;1.95;;
63320;SDS011;49449;48.800;9.534;2023-04-25T01:45:04;2.17;;;1.67;;
63320;SDS011;49449;48.800;9.534;2023-04-25T01:47:33;3.38;;;1.80;;
63320;SDS011;49449;48.800;9.534;2023-04-25T01:50:02;2.10;;;1.85;;
63320;SDS011;49449;48.800;9.534;2023-04-25T01:52:30;2.30;;;1.90;;
63320;SDS011;49449;48.800;9.534;2023-04-25T01:54:57;2.05;;;1.85;;
63320;SDS011;49449;48.800;9.534;2023-04-25T01:57:29;2.20;;;2.10;;
63320;SDS011;49449;48.800;9.534;2023-04-25T01:59:58;2.58;;;2.28;;
63320;SDS011;49449;48.800;9.534;2023-04-25T02:02:28;2.22;;;1.90;;
63320;SDS011;49449;48.800;9.534;2023-04-25T02:04:56;1.77;;;1.67;;
63320;SDS011;49449;48.800;9.534;2023-04-25T02:07:25;2.60;;;2.05;;
63320;SDS011;49449;48.800;9.534;2023-04-25T02:09:53;2.50;;;1.90;;
63320;SDS011;49449;48.800;9.534;2023-04-25T02:12:21;2.08;;;1.80;;
63320;SDS011;49449;48.800;9.534;2023-04-25T02:14:50;3.13;;;2.28;;
63320;SDS011;49449;48.800;9.534;2023-04-25T02:17:18;2.53;;;1.98;;
63320;SDS011;49449;48.800;9.534;2023-04-25T02:19:47;2.22;;;2.05;;
63320;SDS011;49449;48.800;9.534;2023-04-25T02:22:15;2.17;;;1.98;;
63320;SDS011;49449;48.800;9.534;2023-04-25T02:24:42;2.63;;;1.83;;
63320;SDS011;49449;48.800;9.534;2023-04-25T02:27:10;2.10;;;1.90;;
63320;SDS011;49449;48.800;9.534;2023-04-25T02:29:38;2.78;;;2.58;;
63320;SDS011;49449;48.800;9.534;2023-04-25T02:32:07;2.17;;;1.92;;
63320;SDS011;49449;48.800;9.534;2023-04-25T02:34:35;3.45;;;2.08;;
63320;SDS011;49449;48.800;9.534;2023-04-25T02:37:03;2.30;;;2.10;;
63320;SDS011;49449;48.800;9.534;2023-04-25T02:39:31;3.13;;;2.33;;
63320;SDS011;49449;48.800;9.534;2023-04-25T02:41:59;3.00;;;2.08;;
63320;SDS011;49449;48.800;9.534;2023-04-25T02:44:27;2.83;;;2.40;;
63320;SDS011;49449;48.800;9.534;2023-04-25T02:46:54;2.40;;;2.20;;
63320;SDS011;49449;48.800;9.534;2023-04-25T02:49:24;2.20;;;2.08;;
63320;SDS011;49449;48.800;9.534;2023-04-25T02:51:51;2.00;;;1.90;;
63320;SDS011;49449;48.800;9.534;2023-04-25T02:54:19;2.25;;;2.08;;
63320;SDS011;49449;48.800;9.534;2023-04-25T02:56:47;2.38;;;2.10;;
63320;SDS011;49449;48.800;9.534;2023-04-25T02:59:15;2.97;;;2.70;;
63320;SDS011;49449;48.800;9.534;2023-04-25T03:01:43;2.30;;;2.10;;
63320;SDS011;49449;48.800;9.534;2023-04-25T03:04:11;2.00;;;1.90;;
63320;SDS011;49449;48.800;9.534;2023-04-25T03:06:40;2.63;;;2.30;;
63320;SDS011;49449;48.800;9.534;2023-04-25T03:09:08;2.47;;;2.20;;
63320;SDS011;49449;48.800;9.534;2023-04-25T03:11:36;2.50;;;2.28;;
63320;SDS011;49449;48.800;9.534;2023-04-25T03:14:05;2.00;;;1.80;;
63320;SDS011;49449;48.800;9.534;2023-04-25T03:16:33;2.45;;;2.25;;
63320;SDS011;49449;48.800;9.534;2023-04-25T03:19:01;2.45;;;2.25;;
63320;SDS011;49449;48.800;9.534;2023-04-25T03:21:29;2.35;;;2.20;;
63320;SDS011;49449;48.800;9.534;2023-04-25T03:24:00;2.10;;;2.00;;
63320;SDS011;49449;48.800;9.534;2023-04-25T03:26:28;2.63;;;2.10;;
63320;SDS011;49449;48.800;9.534;2023-04-25T03:28:56;2.35;;;2.20;;
63320;SDS011;49449;48.800;9.534;2023-04-25T03:31:23;5.05;;;2.42;;
63320;SDS011;49449;48.800;9.534;2023-04-25T03:33:52;2.63;;;1.90;;
63320;SDS011;49449;48.800;9.534;2023-04-25T03:36:19;2.15;;;1.95;;
63320;SDS011;49449;48.800;9.534;2023-04-25T03:38:47;2.53;;;1.92;;
63320;SDS011;49449;48.800;9.534;2023-04-25T03:41:17;2.42;;;2.15;;
63320;SDS011;49449;48.800;9.534;2023-04-25T03:43:45;3.10;;;2.05;;
63320;SDS011;49449;48.800;9.534;2023-04-25T03:46:13;2.65;;;1.95;;
63320;SDS011;49449;48.800;9.534;2023-04-25T03:48:41;2.15;;;1.85;;
63320;SDS011;49449;48.800;9.534;2023-04-25T03:51:08;2.58;;;2.08;;
63320;SDS011;49449;48.800;9.534;2023-04-25T03:53:37;2.00;;;1.80;;
63320;SDS011;49449;48.800;9.534;2023-04-25T03:56:05;2.10;;;1.90;;
63320;SDS011;49449;48.800;9.534;2023-04-25T03:58:34;2.60;;;2.20;;
63320;SDS011;49449;48.800;9.534;2023-04-25T04:01:02;2.30;;;2.05;;
63320;SDS011;49449;48.800;9.534;2023-04-25T04:06:02;2.17;;;2.00;;
63320;SDS011;49449;48.800;9.534;2023-04-25T04:08:30;2.67;;;2.33;;
63320;SDS011;49449;48.800;9.534;2023-04-25T04:10:58;3.80;;;2.30;;
63320;SDS011;49449;48.800;9.534;2023-04-25T04:13:25;2.45;;;2.25;;
63320;SDS011;49449;48.800;9.534;2023-04-25T04:15:55;8.23;;;2.22;;
63320;SDS011;49449;48.800;9.534;2023-04-25T04:18:23;2.10;;;2.00;;
63320;SDS011;49449;48.800;9.534;2023-04-25T04:20:51;2.53;;;2.13;;
63320;SDS011;49449;48.800;9.534;2023-04-25T04:23:19;2.55;;;2.00;;
63320;SDS011;49449;48.800;9.534;2023-04-25T04:25:47;4.63;;;2.30;;
63320;SDS011;49449;48.800;9.534;2023-04-25T04:28:15;3.08;;;1.98;;
63320;SDS011;49449;48.800;9.534;2023-04-25T04:30:44;3.03;;;2.35;;
63320;SDS011;49449;48.800;9.534;2023-04-25T04:33:14;2.50;;;2.20;;
63320;SDS011;49449;48.800;9.534;2023-04-25T04:35:42;4.57;;;2.53;;
63320;SDS011;49449;48.800;9.534;2023-04-25T04:38:10;3.00;;;2.65;;
63320;SDS011;49449;48.800;9.534;2023-04-25T04:40:38;2.75;;;2.17;;
63320;SDS011;49449;48.800;9.534;2023-04-25T04:43:06;2.97;;;2.33;;
63320;SDS011;49449;48.800;9.534;2023-04-25T04:45:35;2.53;;;2.33;;
63320;SDS011;49449;48.800;9.534;2023-04-25T04:48:04;3.58;;;2.40;;
63320;SDS011;49449;48.800;9.534;2023-04-25T04:50:34;3.05;;;2.17;;
63320;SDS011;49449;48.800;9.534;2023-04-25T04:53:02;2.42;;;2.08;;
63320;SDS011;49449;48.800;9.534;2023-04-25T04:55:29;2.03;;;1.92;;
63320;SDS011;49449;48.800;9.534;2023-04-25T04:57:57;2.47;;;2.10;;
63320;SDS011;49449;48.800;9.534;2023-04-25T05:00:25;3.38;;;2.10;;
63320;SDS011;49449;48.800;9.534;2023-04-25T05:02:54;2.20;;;2.10;;
63320;SDS011;49449;48.800;9.534;2023-04-25T05:05:22;2.67;;;2.20;;
63320;SDS011;49449;48.800;9.534;2023-04-25T05:07:51;2.75;;;2.20;;
63320;SDS011;49449;48.800;9.534;2023-04-25T05:10:19;2.72;;;2.38;;
63320;SDS011;49449;48.800;9.534;2023-04-25T05:12:47;2.95;;;2.20;;
63320;SDS011;49449;48.800;9.534;2023-04-25T05:15:15;3.10;;;2.13;;
63320;SDS011;49449;48.800;9.534;2023-04-25T05:17:43;3.10;;;2.80;;
63320;SDS011;49449;48.800;9.534;2023-04-25T05:20:11;2.92;;;2.47;;
63320;SDS011;49449;48.800;9.534;2023-04-25T05:22:40;2.92;;;2.28;;
63320;SDS011;49449;48.800;9.534;2023-04-25T05:25:10;3.22;;;2.45;;
63320;SDS011;49449;48.800;9.534;2023-04-25T05:27:38;2.13;;;2.00;;
63320;SDS011;49449;48.800;9.534;2023-04-25T05:30:06;2.53;;;2.33;;
63320;SDS011;49449;48.800;9.534;2023-04-25T05:32:35;3.42;;;2.40;;
63320;SDS011;49449;48.800;9.534;2023-04-25T05:35:03;3.40;;;2.50;;
63320;SDS011;49449;48.800;9.534;2023-04-25T05:37:33;2.95;;;2.40;;
63320;SDS011;49449;48.800;9.534;2023-04-25T05:40:01;2.58;;;2.38;;
63320;SDS011;49449;48.800;9.534;2023-04-25T05:42:34;2.60;;;2.40;;
63320;SDS011;49449;48.800;9.534;2023-04-25T05:45:02;2.85;;;2.47;;
63320;SDS011;49449;48.800;9.534;2023-04-25T05:47:30;2.83;;;2.17;;
63320;SDS011;49449;48.800;9.534;2023-04-25T05:49:58;2.88;;;2.47;;
63320;SDS011;49449;48.800;9.534;2023-04-25T05:52:26;4.03;;;2.40;;
63320;SDS011;49449;48.800;9.534;2023-04-25T05:54:53;4.15;;;2.22;;
63320;SDS011;49449;48.800;9.534;2023-04-25T05:57:22;3.08;;;2.78;;
63320;SDS011;49449;48.800;9.534;2023-04-25T05:59:54;3.40;;;2.55;;
63320;SDS011;49449;48.800;9.534;2023-04-25T06:02:21;4.03;;;2.50;;
63320;SDS011;49449;48.800;9.534;2023-04-25T06:04:50;3.10;;;2.83;;
63320;SDS011;49449;48.800;9.534;2023-04-25T06:07:18;2.58;;;2.38;;
63320;SDS011;49449;48.800;9.534;2023-04-25T06:09:46;4.60;;;2.90;;
63320;SDS011;49449;48.800;9.534;2023-04-25T06:12:14;3.70;;;2.47;;
63320;SDS011;49449;48.800;9.534;2023-04-25T06:14:41;2.80;;;2.55;;
63320;SDS011;49449;48.800;9.534;2023-04-25T06:17:11;3.72;;;2.50;;
63320;SDS011;49449;48.800;9.534;2023-04-25T06:19:38;3.63;;;2.38;;
63320;SDS011;49449;48.800;9.534;2023-04-25T06:22:07;3.97;;;2.78;;
63320;SDS011;49449;48.800;9.534;2023-04-25T06:24:34;2.90;;;2.60;;
63320;SDS011;49449;48.800;9.534;2023-04-25T06:27:02;5.20;;;3.08;;
63320;SDS011;49449;48.800;9.534;2023-04-25T06:29:30;4.50;;;2.88;;
63320;SDS011;49449;48.800;9.534;2023-04-25T06:31:59;2.90;;;2.70;;
63320;SDS011;49449;48.800;9.534;2023-04-25T06:34:28;2.63;;;2.40;;
63320;SDS011;49449;48.800;9.534;2023-04-25T06:36:56;3.15;;;2.80;;
63320;SDS011;49449;48.800;9.534;2023-04-25T06:39:24;3.15;;;2.85;;
63320;SDS011;49449;48.800;9.534;2023-04-25T06:41:51;4.15;;;2.70;;
63320;SDS011;49449;48.800;9.534;2023-04-25T06:44:19;2.92;;;2.67;;
63320;SDS011;49449;48.800;9.534;2023-04-25T06:46:49;4.35;;;2.92;;
63320;SDS011;49449;48.800;9.534;2023-04-25T06:49:17;3.30;;;3.00;;
63320;SDS011;49449;48.800;9.534;2023-04-25T06:51:46;4.45;;;3.03;;
63320;SDS011;49449;48.800;9.534;2023-04-25T06:54:13;3.60;;;2.90;;
63320;SDS011;49449;48.800;9.534;2023-04-25T06:56:41;4.05;;;3.30;;
63320;SDS011;49449;48.800;9.534;2023-04-25T06:59:09;3.65;;;2.80;;
63320;SDS011;49449;48.800;9.534;2023-04-25T07:01:37;3.25;;;2.95;;
63320;SDS011;49449;48.800;9.534;2023-04-25T07:04:04;3.30;;;3.00;;
63320;SDS011;49449;48.800;9.534;2023-04-25T07:06:32;3.28;;;2.97;;
63320;SDS011;49449;48.800;9.534;2023-04-25T07:09:01;3.92;;;3.60;;
63320;SDS011;49449;48.800;9.534;2023-04-25T07:11:29;3.08;;;2.78;;
63320;SDS011;49449;48.800;9.534;2023-04-25T07:13:57;2.90;;;2.67;;
63320;SDS011;49449;48.800;9.534;2023-04-25T07:16:25;3.65;;;3.10;;
63320;SDS011;49449;48.800;9.534;2023-04-25T07:18:53;4.05;;;3.40;;
63320;SDS011;49449;48.800;9.534;2023-04-25T07:21:21;3.65;;;3.25;;
63320;SDS011;49449;48.800;9.534;2023-04-25T07:23:48;3.17;;;2.97;;
63320;SDS011;49449;48.800;9.534;2023-04-25T07:26:18;3.72;;;3.38;;
63320;SDS011;49449;48.800;9.534;2023-04-25T07:28:45;3.38;;;2.95;;
63320;SDS011;49449;48.800;9.534;2023-04-25T07:31:16;3.60;;;3.30;;
63320;SDS011;49449;48.800;9.534;2023-04-25T07:33:44;2.85;;;2.65;;
63320;SDS011;49449;48.800;9.534;2023-04-25T07:36:12;2.67;;;2.47;;
63320;SDS011;49449;48.800;9.534;2023-04-25T07:38:41;3.67;;;3.00;;
63320;SDS011;49449;48.800;9.534;2023-04-25T07:41:09;3.08;;;2.88;;
63320;SDS011;49449;48.800;9.534;2023-04-25T07:43:38;2.53;;;2.33;;
63320;SDS011;49449;48.800;9.534;2023-04-25T07:46:06;2.67;;;2.30;;
63320;SDS011;49449;48.800;9.534;2023-04-25T07:48:33;2.50;;;2.30;;
63320;SDS011;49449;48.800;9.534;2023-04-25T07:51:01;2.53;;;2.33;;
63320;SDS011;49449;48.800;9.534;2023-04-25T07:53:30;2.67;;;2.47;;
63320;SDS011;49449;48.800;9.534;2023-04-25T07:55:58;2.63;;;2.38;;
63320;SDS011;49449;48.800;9.534;2023-04-25T07:58:26;2.92;;;2.72;;
63320;SDS011;49449;48.800;9.534;2023-04-25T08:00:55;3.50;;;2.72;;
63320;SDS011;49449;48.800;9.534;2023-04-25T08:03:23;2.70;;;2.50;;
63320;SDS011;49449;48.800;9.534;2023-04-25T08:05:51;2.80;;;2.55;;
63320;SDS011;49449;48.800;9.534;2023-04-25T08:08:18;2.63;;;2.42;;
63320;SDS011;49449;48.800;9.534;2023-04-25T08:10:46;2.83;;;2.60;;
63320;SDS011;49449;48.800;9.534;2023-04-25T08:13:14;3.22;;;2.92;;
63320;SDS011;49449;48.800;9.534;2023-04-25T08:15:42;3.20;;;2.90;;
63320;SDS011;49449;48.800;9.534;2023-04-25T08:18:11;3.47;;;3.08;;
63320;SDS011;49449;48.800;9.534;2023-04-25T08:20:39;3.55;;;3.25;;
63320;SDS011;49449;48.800;9.534;2023-04-25T08:23:07;3.95;;;3.38;;
63320;SDS011;49449;48.800;9.534;2023-04-25T08:25:36;4.28;;;3.88;;
63320;SDS011;49449;48.800;9.534;2023-04-25T08:28:05;3.05;;;2.75;;
63320;SDS011;49449;48.800;9.534;2023-04-25T08:30:32;3.40;;;3.10;;
63320;SDS011;49449;48.800;9.534;2023-04-25T08:33:00;2.90;;;2.70;;
63320;SDS011;49449;48.800;9.534;2023-04-25T08:35:30;3.03;;;2.70;;
63320;SDS011;49449;48.800;9.534;2023-04-25T08:37:59;3.17;;;2.88;;
63320;SDS011;49449;48.800;9.534;2023-04-25T08:40:27;3.50;;;3.20;;
63320;SDS011;49449;48.800;9.534;2023-04-25T08:42:56;3.38;;;3.08;;
63320;SDS011;49449;48.800;9.534;2023-04-25T08:45:25;2.90;;;2.70;;
63320;SDS011;49449;48.800;9.534;2023-04-25T08:47:55;3.63;;;2.50;;
63320;SDS011;49449;48.800;9.534;2023-04-25T08:50:24;3.42;;;2.50;;
63320;SDS011;49449;48.800;9.534;2023-04-25T08:52:54;2.90;;;2.60;;
63320;SDS011;49449;48.800;9.534;2023-04-25T08:55:27;3.20;;;2.90;;
63320;SDS011;49449;48.800;9.534;2023-04-25T08:57:56;2.97;;;2.67;;
63320;SDS011;49449;48.800;9.534;2023-04-25T09:00:26;3.10;;;2.80;;
63320;SDS011;49449;48.800;9.534;2023-04-25T09:02:54;3.50;;;3.20;;
63320;SDS011;49449;48.800;9.534;2023-04-25T09:05:22;3.95;;;3.17;;
63320;SDS011;49449;48.800;9.534;2023-04-25T09:07:50;3.17;;;2.88;;
63320;SDS011;49449;48.800;9.534;2023-04-25T09:10:20;3.45;;;3.15;;
63320;SDS011;49449;48.800;9.534;2023-04-25T09:13:01;3.80;;;3.25;;
63320;SDS011;49449;48.800;9.534;2023-04-25T09:15:29;3.78;;;3.40;;
63320;SDS011;49449;48.800;9.534;2023-04-25T09:17:57;3.83;;;3.50;;
63320;SDS011;49449;48.800;9.534;2023-04-25T09:20:26;3.08;;;2.78;;
63320;SDS011;49449;48.800;9.534;2023-04-25T09:23:01;4.30;;;2.75;;
63320;SDS011;49449;48.800;9.534;2023-04-25T09:25:35;3.30;;;2.85;;
63320;SDS011;49449;48.800;9.534;2023-04-25T09:28:05;3.85;;;3.45;;
63320;SDS011;49449;48.800;9.534;2023-04-25T09:30:34;3.15;;;2.85;;
63320;SDS011;49449;48.800;9.534;2023-04-25T09:33:05;4.45;;;4.05;;
63320;SDS011;49449;48.800;9.534;2023-04-25T09:35:37;4.22;;;3.83;;
63320;SDS011;49449;48.800;9.534;2023-04-25T09:38:12;3.72;;;3.42;;
63320;SDS011;49449;48.800;9.534;2023-04-25T09:40:46;4.05;;;3.40;;
63320;SDS011;49449;48.800;9.534;2023-04-25T09:43:19;3.13;;;2.92;;
63320;SDS011;49449;48.800;9.534;2023-04-25T09:45:48;2.35;;;2.20;;
63320;SDS011;49449;48.800;9.534;2023-04-25T09:48:18;2.90;;;2.70;;
63320;SDS011;49449;48.800;9.534;2023-04-25T09:50:51;2.80;;;2.60;;
63320;SDS011;49449;48.800;9.534;2023-04-25T09:53:32;2.65;;;2.45;;
63320;SDS011;49449;48.800;9.534;2023-04-25T09:56:01;2.78;;;2.60;;
63320;SDS011;49449;48.800;9.534;2023-04-25T09:58:31;3.83;;;3.50;;
63320;SDS011;49449;48.800;9.534;2023-04-25T10:01:00;2.25;;;2.13;;
63320;SDS011;49449;48.800;9.534;2023-04-25T10:03:30;2.38;;;2.17;;
63320;SDS011;49449;48.800;9.534;2023-04-25T10:05:59;2.08;;;1.92;;
63320;SDS011;49449;48.800;9.534;2023-04-25T10:08:29;2.17;;;2.03;;
63320;SDS011;49449;48.800;9.534;2023-04-25T10:11:00;2.55;;;2.35;;
63320;SDS011;49449;48.800;9.534;2023-04-25T10:13:30;2.30;;;2.10;;
63320;SDS011;49449;48.800;9.534;2023-04-25T10:15:59;2.28;;;2.08;;
63320;SDS011;49449;48.800;9.534;2023-04-25T10:18:28;2.75;;;2.38;;
63320;SDS011;49449;48.800;9.534;2023-04-25T10:20:58;2.97;;;2.70;;
63320;SDS011;49449;48.800;9.534;2023-04-25T10:23:27;3.13;;;2.92;;
63320;SDS011;49449;48.800;9.534;2023-04-25T10:25:57;2.70;;;2.50;;
63320;SDS011;49449;48.800;9.534;2023-04-25T10:28:27;3.60;;;2.63;;
63320;SDS011;49449;48.800;9.534;2023-04-25T10:30:58;3.50;;;2.67;;
63320;SDS011;49449;48.800;9.534;2023-04-25T10:33:32;3.03;;;2.83;;
63320;SDS011;49449;48.800;9.534;2023-04-25T10:36:08;3.00;;;2.80;;
63320;SDS011;49449;48.800;9.534;2023-04-25T10:38:37;2.83;;;2.63;;
63320;SDS011;49449;48.800;9.534;2023-04-25T10:41:05;2.92;;;2.70;;
63320;SDS011;49449;48.800;9.534;2023-04-25T10:43:39;2.58;;;2.25;;
63320;SDS011;49449;48.800;9.534;2023-04-25T10:46:17;2.55;;;2.35;;
63320;SDS011;49449;48.800;9.534;2023-04-25T10:48:47;2.42;;;1.92;;
63320;SDS011;49449;48.800;9.534;2023-04-25T10:51:16;1.98;;;1.85;;
63320;SDS011;49449;48.800;9.534;2023-04-25T10:53:46;1.70;;;1.60;;
63320;SDS011;49449;48.800;9.534;2023-04-25T10:56:26;1.80;;;1.70;;
63320;SDS011;49449;48.800;9.534;2023-04-25T10:59:06;2.15;;;1.77;;
63320;SDS011;49449;48.800;9.534;2023-04-25T11:01:37;2.20;;;1.98;;
63320;SDS011;49449;48.800;9.534;2023-04-25T11:04:06;1.55;;;1.45;;
63320;SDS011;49449;48.800;9.534;2023-04-25T11:06:51;2.20;;;2.00;;
63320;SDS011;49449;48.800;9.534;2023-04-25T11:12:03;3.20;;;2.45;;
63320;SDS011;49449;48.800;9.534;2023-04-25T11:14:33;2.10;;;1.90;;
63320;SDS011;49449;48.800;9.534;2023-04-25T11:17:01;2.58;;;2.00;;
63320;SDS011;49449;48.800;9.534;2023-04-25T11:19:29;2.40;;;2.08;;
63320;SDS011;49449;48.800;9.534;2023-04-25T11:21:57;3.15;;;1.90;;
63320;SDS011;49449;48.800;9.534;2023-04-25T11:24:27;2.25;;;2.15;;
63320;SDS011;49449;48.800;9.534;2023-04-25T11:26:55;2.63;;;2.28;;
63320;SDS011;49449;48.800;9.534;2023-04-25T11:29:23;3.25;;;2.92;;
63320;SDS011;49449;48.800;9.534;2023-04-25T11:31:55;3.90;;;3.10;;
63320;SDS011;49449;48.800;9.534;2023-04-25T11:34:24;3.67;;;3.15;;
63320;SDS011;49449;48.800;9.534;2023-04-25T11:36:52;3.47;;;3.05;;
63320;SDS011;49449;48.800;9.534;2023-04-25T11:39:20;3.10;;;2.80;;
63320;SDS011;49449;48.800;9.534;2023-04-25T11:41:48;4.57;;;3.00;;
63320;SDS011;49449;48.800;9.534;2023-04-25T11:44:16;3.05;;;2.85;;
63320;SDS011;49449;48.800;9.534;2023-04-25T11:46:45;3.53;;;3.22;;
63320;SDS011;49449;48.800;9.534;2023-04-25T11:49:14;4.82;;;3.80;;
63320;SDS011;49449;48.800;9.534;2023-04-25T11:51:44;3.85;;;3.10;;
63320;SDS011;49449;48.800;9.534;2023-04-25T11:54:13;3.65;;;3.25;;
63320;SDS011;49449;48.800;9.534;2023-04-25T11:56:42;2.92;;;2.72;;
63320;SDS011;49449;48.800;9.534;2023-04-25T11:59:10;3.10;;;2.90;;
63320;SDS011;49449;48.800;9.534;2023-04-25T12:01:39;3.25;;;2.92;;
63320;SDS011;49449;48.800;9.534;2023-04-25T12:04:11;2.90;;;2.70;;
63320;SDS011;49449;48.800;9.534;2023-04-25T12:06:42;2.28;;;2.10;;
63320;SDS011;49449;48.800;9.534;2023-04-25T12:09:12;2.30;;;2.15;;
63320;SDS011;49449;48.800;9.534;2023-04-25T12:11:42;1.98;;;1.77;;
63320;SDS011;49449;48.800;9.534;2023-04-25T12:14:10;2.15;;;1.90;;
63320;SDS011;49449;48.800;9.534;2023-04-25T12:16:41;2.88;;;1.90;;
63320;SDS011;49449;48.800;9.534;2023-04-25T12:19:09;1.70;;;1.60;;
63320;SDS011;49449;48.800;9.534;2023-04-25T12:21:42;2.10;;;1.90;;
63320;SDS011;49449;48.800;9.534;2023-04-25T12:24:21;2.28;;;2.13;;
63320;SDS011;49449;48.800;9.534;2023-04-25T12:26:52;2.88;;;2.50;;
63320;SDS011;49449;48.800;9.534;2023-04-25T12:29:21;2.97;;;2.40;;
63320;SDS011;49449;48.800;9.534;2023-04-25T12:31:53;3.63;;;3.33;;
63320;SDS011;49449;48.800;9.534;2023-04-25T12:34:22;3.38;;;2.67;;
63320;SDS011;49449;48.800;9.534;2023-04-25T12:36:52;3.55;;;3.03;;
63320;SDS011;49449;48.800;9.534;2023-04-25T12:39:20;3.97;;;2.60;;
63320;SDS011;49449;48.800;9.534;2023-04-25T12:41:49;2.58;;;2.38;;
63320;SDS011;49449;48.800;9.534;2023-04-25T12:44:18;3.13;;;2.60;;
63320;SDS011;49449;48.800;9.534;2023-04-25T12:46:46;2.67;;;2.47;;
63320;SDS011;49449;48.800;9.534;2023-04-25T12:49:14;3.03;;;2.22;;
63320;SDS011;49449;48.800;9.534;2023-04-25T12:51:44;2.90;;;2.70;;
63320;SDS011;49449;48.800;9.534;2023-04-25T12:54:13;2.70;;;2.47;;
63320;SDS011;49449;48.800;9.534;2023-04-25T12:56:41;2.60;;;2.40;;
63320;SDS011;49449;48.800;9.534;2023-04-25T12:59:09;2.47;;;2.28;;
63320;SDS011;49449;48.800;9.534;2023-04-25T13:01:37;2.42;;;2.17;;
63320;SDS011;49449;48.800;9.534;2023-04-25T13:04:05;2.38;;;2.17;;
63320;SDS011;49449;48.800;9.534;2023-04-25T13:06:32;3.25;;;2.63;;
63320;SDS011;49449;48.800;9.534;2023-04-25T13:09:00;2.50;;;2.30;;
63320;SDS011;49449;48.800;9.534;2023-04-25T13:11:30;2.20;;;2.08;;
63320;SDS011;49449;48.800;9.534;2023-04-25T13:13:58;2.25;;;2.05;;
63320;SDS011;49449;48.800;9.534;2023-04-25T13:16:26;2.30;;;2.08;;
63320;SDS011;49449;48.800;9.534;2023-04-25T13:18:54;2.20;;;2.00;;
63320;SDS011;49449;48.800;9.534;2023-04-25T13:21:22;2.17;;;2.08;;
63320;SDS011;49449;48.800;9.534;2023-04-25T13:23:53;2.40;;;2.20;;
63320;SDS011;49449;48.800;9.534;2023-04-25T13:26:20;2.33;;;2.10;;
63320;SDS011;49449;48.800;9.534;2023-04-25T13:28:49;2.92;;;2.15;;
63320;SDS011;49449;48.800;9.534;2023-04-25T13:31:17;2.38;;;2.17;;
63320;SDS011;49449;48.800;9.534;2023-04-25T13:33:45;2.70;;;2.50;;
63320;SDS011;49449;48.800;9.534;2023-04-25T13:36:13;2.60;;;2.40;;
63320;SDS011;49449;48.800;9.534;2023-04-25T13:38:40;2.75;;;2.30;;
63320;SDS011;49449;48.800;9.534;2023-04-25T13:41:10;3.15;;;2.88;;
63320;SDS011;49449;48.800;9.534;2023-04-25T13:43:42;3.40;;;3.00;;
63320;SDS011;49449;48.800;9.534;2023-04-25T13:46:11;3.47;;;3.15;;
63320;SDS011;49449;48.800;9.534;2023-04-25T13:48:46;3.22;;;2.92;;
63320;SDS011;49449;48.800;9.534;2023-04-25T13:51:15;3.20;;;2.90;;
63320;SDS011;49449;48.800;9.534;2023-04-25T13:53:43;4.97;;;3.15;;
63320;SDS011;49449;48.800;9.534;2023-04-25T13:56:12;2.78;;;2.47;;
63320;SDS011;49449;48.800;9.534;2023-04-25T13:58:39;2.70;;;2.50;;
63320;SDS011;49449;48.800;9.534;2023-04-25T14:01:07;4.50;;;3.30;;
63320;SDS011;49449;48.800;9.534;2023-04-25T14:03:36;3.10;;;2.90;;
63320;SDS011;49449;48.800;9.534;2023-04-25T14:06:04;3.03;;;2.72;;
63320;SDS011;49449;48.800;9.534;2023-04-25T14:08:32;4.90;;;2.88;;
63320;SDS011;49449;48.800;9.534;2023-04-25T14:11:00;5.93;;;3.63;;
63320;SDS011;49449;48.800;9.534;2023-04-25T14:13:28;4.57;;;3.78;;
63320;SDS011;49449;48.800;9.534;2023-04-25T14:15:55;3.85;;;3.42;;
63320;SDS011;49449;48.800;9.534;2023-04-25T14:18:24;3.60;;;3.25;;
63320;SDS011;49449;48.800;9.534;2023-04-25T14:20:53;6.03;;;3.63;;
63320;SDS011;49449;48.800;9.534;2023-04-25T14:23:21;4.95;;;3.45;;
63320;SDS011;49449;48.800;9.534;2023-04-25T14:25:49;4.32;;;2.95;;
63320;SDS011;49449;48.800;9.534;2023-04-25T14:28:16;3.88;;;3.40;;
63320;SDS011;49449;48.800;9.534;2023-04-25T14:30:44;4.35;;;3.53;;
63320;SDS011;49449;48.800;9.534;2023-04-25T14:33:12;3.92;;;3.53;;
63320;SDS011;49449;48.800;9.534;2023-04-25T14:35:40;5.50;;;4.75;;
63320;SDS011;49449;48.800;9.534;2023-04-25T14:38:09;6.75;;;4.80;;
63320;SDS011;49449;48.800;9.534;2023-04-25T14:40:37;7.07;;;4.70;;
63320;SDS011;49449;48.800;9.534;2023-04-25T14:43:05;6.03;;;4.00;;
63320;SDS011;49449;48.800;9.534;2023-04-25T14:45:33;5.18;;;4.18;;
63320;SDS011;49449;48.800;9.534;2023-04-25T14:48:01;8.05;;;4.95;;
63320;SDS011;49449;48.800;9.534;2023-04-25T14:50:29;4.60;;;3.92;;
63320;SDS011;49449;48.800;9.534;2023-04-25T14:52:56;5.00;;;4.00;;
63320;SDS011;49449;48.800;9.534;2023-04-25T14:55:28;6.03;;;4.03;;
63320;SDS011;49449;48.800;9.534;2023-04-25T14:57:56;5.40;;;3.75;;
63320;SDS011;49449;48.800;9.534;2023-04-25T15:00:24;4.45;;;4.05;;
63320;SDS011;49449;48.800;9.534;2023-04-25T15:02:52;5.55;;;4.15;;